Time;durP1;ratioP1;P1;durP2;ratioP2;P2;SDS_P1;SDS_P2;PMS_P1;PMS_P2;Temp;Humidity;BMP_temperature;BMP_pressure;BME280_temperature;BME280_humidity;BME280_pressure;Samples;Min_cycle;Max_cycle;Signal;HPM_P1;HPM_P2
2022/09/15 00:03:42;;;;;;;3.75;1.77;;;;;;;14.89;79.54;100712.91;10382788;28;20100;-74
2022/09/15 00:14:33;;;;;;;9.68;3.25;;;;;;;14.78;80.39;100718.34;10503443;28;20045;-74
2022/09/15 00:19:44;;;;;;;7.85;3.88;;;;;;;14.79;80.26;100706.38;10539212;28;20024;-75
2022/09/15 00:24:48;;;;;;;4.65;4.22;;;;;;;14.92;79.95;100700.72;10538708;28;20028;-75
2022/09/15 00:29:57;;;;;;;12.38;4.03;;;;;;;14.93;79.85;100709.72;10538286;28;20556;-74
2022/09/15 03:59:35;;;;;;;8.00;1.52;;;;;;;15.98;81.02;100750.09;10330380;28;20033;-74
2022/09/15 05:19:16;;;;;;;2.40;1.20;;;;;;;15.54;79.97;100750.38;10412635;28;20057;-74
2022/09/15 05:38:30;;;;;;;1.98;1.50;;;;;;;15.73;79.65;100758.50;10375714;28;20058;-74
2022/09/15 05:44:20;;;;;;;2.15;1.90;;;;;;;15.87;79.66;100759.97;10535567;28;20048;-74
2022/09/15 06:08:09;;;;;;;4.55;2.63;;;;;;;16.30;79.12;100766.97;10174683;29;20036;-74
2022/09/15 06:19:30;;;;;;;5.13;1.98;;;;;;;16.37;79.28;100775.03;10173324;29;20031;-74
2022/09/15 06:24:31;;;;;;;3.42;1.73;;;;;;;16.43;79.12;100769.47;10429655;28;20044;-74
2022/09/15 06:29:31;;;;;;;6.75;2.45;;;;;;;16.54;78.92;100788.81;10541036;28;20468;-74
2022/09/15 06:34:32;;;;;;;9.73;2.25;;;;;;;16.68;78.93;100790.22;10539323;28;20067;-74
2022/09/15 06:39:36;;;;;;;2.60;1.67;;;;;;;16.82;78.65;100794.38;10566356;28;20370;-74
2022/09/15 07:02:56;;;;;;;6.75;1.95;;;;;;;17.31;78.26;100818.63;10583859;28;20527;-75
2022/09/15 07:07:56;;;;;;;4.65;2.10;;;;;;;17.43;77.69;100825.69;10583874;28;20454;-74
2022/09/15 07:13:35;;;;;;;4.30;2.50;;;;;;;17.59;77.08;100823.25;10584856;28;20032;-74
2022/09/15 07:18:36;;;;;;;14.20;2.25;;;;;;;17.63;77.53;100832.63;10562908;28;20091;-74
2022/09/15 07:23:47;;;;;;;9.35;2.17;;;;;;;17.43;76.52;100847.59;10564650;28;20059;-73
2022/09/15 07:28:50;;;;;;;7.15;1.80;;;;;;;17.38;77.00;100850.22;10582501;28;20096;-74
2022/09/15 07:33:50;;;;;;;4.95;1.27;;;;;;;19.36;74.21;100845.38;10582526;28;20108;-74
2022/09/15 07:44:33;;;;;;;6.75;1.45;;;;;;;19.28;73.85;100854.91;10442747;28;20443;-74
2022/09/15 07:49:33;;;;;;;3.53;2.13;;;;;;;20.17;72.24;100861.06;10573238;28;20047;-74
2022/09/15 07:54:34;;;;;;;4.15;2.33;;;;;;;19.66;68.01;100869.66;10555781;28;20035;-74
2022/09/15 07:59:35;;;;;;;1.65;1.55;;;;;;;20.09;67.46;100872.53;10590515;28;20039;-74
2022/09/15 08:04:35;;;;;;;8.38;2.22;;;;;;;20.28;66.17;100881.22;10588628;28;20479;-74
2022/09/15 08:09:39;;;;;;;2.80;2.00;;;;;;;19.64;67.12;100892.97;10590832;28;20375;-74
2022/09/15 08:14:40;;;;;;;5.20;2.20;;;;;;;19.00;69.17;100910.00;10590899;28;20104;-74
2022/09/15 08:19:40;;;;;;;3.40;1.65;;;;;;;18.79;70.26;100906.97;10571041;28;20616;-74
2022/09/15 08:24:41;;;;;;;2.10;1.33;;;;;;;19.05;68.64;100921.06;10589492;28;20352;-74
2022/09/15 08:29:42;;;;;;;8.15;2.08;;;;;;;19.00;67.47;100924.56;10589700;28;20036;-73
2022/09/15 08:34:42;;;;;;;4.38;1.30;;;;;;;18.53;66.56;100940.53;10587953;28;20065;-74
2022/09/15 08:39:44;;;;;;;5.07;1.27;;;;;;;18.48;68.89;100943.22;10571079;28;20067;-74
2022/09/15 08:45:00;;;;;;;3.15;2.00;;;;;;;18.79;68.53;100942.66;10589613;28;20115;-74
2022/09/15 08:50:26;;;;;;;9.93;1.45;;;;;;;19.41;67.32;100941.56;10571644;28;20466;-73
2022/09/15 08:55:43;;;;;;;1.42;1.33;;;;;;;19.47;66.69;100947.97;10588235;28;20028;-73
2022/09/15 09:00:50;;;;;;;4.47;2.05;;;;;;;19.58;67.06;100948.91;10571263;28;20126;-74
2022/09/15 09:05:58;;;;;;;6.15;2.22;;;;;;;19.85;67.17;100940.75;10587882;28;20028;-74
2022/09/15 09:11:30;;;;;;;1.23;1.13;;;;;;;20.29;66.67;100938.69;10569717;28;20020;-74
2022/09/15 09:16:40;;;;;;;1.58;1.48;;;;;;;20.65;65.63;100942.63;10587567;28;20387;-74
2022/09/15 09:21:42;;;;;;;4.00;1.30;;;;;;;21.02;66.36;100944.50;10587468;28;20410;-74
2022/09/15 09:26:43;;;;;;;2.15;1.90;;;;;;;20.98;66.81;100937.88;10586483;28;20036;-74
2022/09/15 09:31:45;;;;;;;7.00;1.27;;;;;;;21.05;64.14;100932.94;10568672;28;20375;-74
2022/09/15 09:36:56;;;;;;;2.00;1.50;;;;;;;21.29;63.63;100933.38;10536823;28;20048;-74
2022/09/15 09:41:57;;;;;;;1.48;1.15;;;;;;;21.64;63.41;100933.81;10527645;28;20039;-74
2022/09/15 09:46:58;;;;;;;2.55;2.17;;;;;;;21.45;60.14;100930.72;10545153;28;20036;-74
2022/09/15 09:52:02;;;;;;;5.40;1.30;;;;;;;21.43;60.35;100928.22;10543948;28;20477;-74
2022/09/15 09:57:26;;;;;;;2.30;1.08;;;;;;;21.65;58.22;100933.53;10545264;28;20032;-73
2022/09/15 10:02:27;;;;;;;12.70;1.55;;;;;;;21.67;56.91;100931.34;10544739;28;20472;-74
2022/09/15 10:07:28;;;;;;;4.40;1.30;;;;;;;21.64;54.62;100940.16;10524441;28;20036;-74
2022/09/15 10:12:38;;;;;;;1.60;1.50;;;;;;;21.72;56.64;100930.53;10525556;28;20369;-74
2022/09/15 10:17:42;;;;;;;4.88;1.67;;;;;;;21.96;54.97;100928.94;10526301;28;20024;-74
2022/09/15 10:22:43;;;;;;;7.57;1.85;;;;;;;22.25;54.66;100925.69;10525887;28;20031;-74
2022/09/15 10:27:43;;;;;;;2.45;1.38;;;;;;;22.02;49.70;100929.78;10525605;28;20035;-74
2022/09/15 10:32:44;;;;;;;3.20;1.88;;;;;;;21.97;50.03;100933.34;10525340;28;20036;-74
2022/09/15 10:37:44;;;;;;;4.05;1.40;;;;;;;22.03;51.50;100939.69;10582838;28;20443;-74
2022/09/15 10:42:51;;;;;;;4.50;1.42;;;;;;;21.97;50.54;100941.59;10587129;28;20375;-75
2022/09/15 10:48:02;;;;;;;6.43;1.73;;;;;;;22.19;52.79;100929.53;10566650;28;20477;-74
2022/09/15 10:53:21;;;;;;;2.05;1.63;;;;;;;22.52;49.47;100931.75;10583346;28;20439;-74
2022/09/15 10:58:55;;;;;;;1.95;1.77;;;;;;;22.22;50.70;100929.81;10583804;28;20023;-74
2022/09/15 11:04:10;;;;;;;2.85;1.73;;;;;;;21.56;51.67;100944.25;10566549;28;20478;-74
2022/09/15 11:09:24;;;;;;;2.30;2.10;;;;;;;21.06;52.89;100951.16;10565146;28;20046;-74
2022/09/15 11:14:37;;;;;;;2.60;1.73;;;;;;;20.99;53.47;100956.03;10565238;28;20035;-74
2022/09/15 11:20:24;;;;;;;2.05;1.85;;;;;;;20.61;51.32;100969.00;10532251;28;20495;-74
2022/09/15 11:25:26;;;;;;;3.58;1.45;;;;;;;20.39;50.91;100966.31;10583370;28;20503;-73
2022/09/15 11:31:10;;;;;;;3.90;1.73;;;;;;;20.26;53.16;100968.63;10582496;28;20088;-74
2022/09/15 11:36:17;;;;;;;6.55;1.70;;;;;;;20.24;53.30;100965.34;10582917;28;20058;-73
2022/09/15 11:41:26;;;;;;;2.55;1.52;;;;;;;20.20;53.50;100971.34;10566571;28;20031;-74
2022/09/15 11:46:58;;;;;;;3.00;1.27;;;;;;;20.08;53.91;100967.09;10582255;28;20024;-74
2022/09/15 11:52:13;;;;;;;4.88;1.15;;;;;;;20.11;54.48;100972.91;10556826;28;20043;-74
2022/09/15 11:57:17;;;;;;;2.15;1.95;;;;;;;20.51;54.55;100976.28;10566552;28;20055;-74
2022/09/15 12:02:30;;;;;;;5.00;1.67;;;;;;;20.78;53.21;100977.09;10565283;28;20032;-74
2022/09/15 12:07:33;;;;;;;6.43;1.77;;;;;;;21.07;52.58;100968.50;10564224;28;20383;-74
2022/09/15 12:12:34;;;;;;;6.95;1.80;;;;;;;21.42;53.09;100962.38;10564175;28;20069;-74
2022/09/15 12:17:48;;;;;;;3.50;2.13;;;;;;;21.80;52.41;100958.41;10547607;28;20027;-74
2022/09/15 12:22:54;;;;;;;6.93;1.83;;;;;;;21.78;51.08;100968.03;10549275;28;20067;-74
2022/09/15 12:28:21;;;;;;;4.13;2.20;;;;;;;21.75;51.75;100965.81;10562734;28;20036;-74
2022/09/15 12:33:58;;;;;;;8.32;1.63;;;;;;;21.88;50.37;100953.44;10576955;28;20055;-73
2022/09/15 12:38:59;;;;;;;3.83;1.58;;;;;;;21.90;51.16;100971.38;10589822;28;20421;-74
2022/09/15 12:44:16;;;;;;;2.75;1.88;;;;;;;21.04;52.65;100975.34;10570736;28;20063;-74
2022/09/15 12:49:17;;;;;;;11.50;2.22;;;;;;;20.43;52.40;100988.63;10572236;28;20035;-74
2022/09/15 12:54:29;;;;;;;2.75;1.27;;;;;;;20.04;52.32;100983.28;10569804;28;20391;-74
2022/09/15 12:59:30;;;;;;;8.07;1.52;;;;;;;19.93;54.21;101003.47;10589115;28;20063;-74
2022/09/15 13:04:53;;;;;;;6.30;2.00;;;;;;;19.76;54.85;100994.50;10569314;28;20063;-73
2022/09/15 13:10:16;;;;;;;6.53;2.08;;;;;;;19.51;55.87;100995.81;10571298;28;20039;-73
2022/09/15 13:15:16;;;;;;;2.65;2.25;;;;;;;19.40;55.64;100988.50;10589705;28;20040;-74
2022/09/15 13:20:21;;;;;;;13.02;1.58;;;;;;;19.04;56.23;100994.31;10587485;28;20035;-73
2022/09/15 13:25:23;;;;;;;3.67;1.92;;;;;;;18.66;57.24;100992.31;10536979;28;20043;-73
2022/09/15 13:30:51;;;;;;;7.32;1.80;;;;;;;18.35;56.49;101002.78;10568533;28;20063;-73
2022/09/15 13:35:51;;;;;;;1.42;1.17;;;;;;;18.29;55.06;101001.00;10586929;28;20120;-73
2022/09/15 13:41:06;;;;;;;1.20;1.15;;;;;;;18.55;54.62;100999.53;10587840;28;20032;-73
2022/09/15 13:46:32;;;;;;;1.95;1.15;;;;;;;18.87;54.19;100995.44;10567361;28;20379;-73
2022/09/15 13:51:32;;;;;;;1.48;1.38;;;;;;;19.16;53.73;101001.63;10569532;28;20031;-74
2022/09/15 13:56:40;;;;;;;1.58;1.17;;;;;;;19.17;53.80;100993.13;10585425;28;20102;-74
2022/09/15 14:01:40;;;;;;;1.10;0.98;;;;;;;19.34;54.20;100984.06;10567627;28;20367;-74
2022/09/15 14:06:48;;;;;;;3.45;1.70;;;;;;;19.29;55.33;100987.53;10566984;28;20023;-74
2022/09/15 14:11:50;;;;;;;2.30;1.45;;;;;;;19.18;55.60;100994.81;10567158;28;20055;-73
2022/09/15 14:16:51;;;;;;;6.22;2.92;;;;;;;18.83;56.39;101003.34;10567158;28;20451;-74
2022/09/15 14:21:52;;;;;;;8.52;1.70;;;;;;;17.63;62.59;101013.38;10566800;28;20040;-73
2022/09/15 14:26:53;;;;;;;3.25;1.48;;;;;;;17.15;63.23;101006.28;10584912;28;20375;-73
2022/09/15 14:31:58;;;;;;;2.83;1.42;;;;;;;17.08;65.28;101000.13;10583994;28;20450;-74
2022/09/15 14:37:06;;;;;;;5.00;2.13;;;;;;;17.09;67.53;100999.03;10566436;28;20044;-74
2022/09/15 14:42:09;;;;;;;9.82;2.35;;;;;;;17.15;68.73;100995.34;10583572;28;20424;-74
2022/09/15 14:47:19;;;;;;;8.30;2.35;;;;;;;17.19;68.08;100993.78;10583851;28;20512;-73
2022/09/15 14:52:28;;;;;;;10.90;2.63;;;;;;;17.11;70.40;101010.59;10550883;28;20032;-74
2022/09/15 14:57:29;;;;;;;5.53;1.85;;;;;;;17.00;69.20;101009.50;10565338;28;20378;-74
2022/09/15 15:02:53;;;;;;;8.48;2.45;;;;;;;17.14;69.08;101015.56;10548505;28;20110;-73
2022/09/15 15:07:54;;;;;;;2.15;1.77;;;;;;;17.30;68.56;101009.38;10567281;28;20106;-74
2022/09/15 15:12:56;;;;;;;3.17;1.83;;;;;;;17.46;67.47;101017.94;10564984;28;20035;-73
2022/09/15 15:17:57;;;;;;;5.85;1.77;;;;;;;17.56;66.85;101024.47;10564966;28;20036;-74
2022/09/15 15:23:16;;;;;;;2.47;1.70;;;;;;;17.68;66.26;101013.50;10581668;28;20039;-73
2022/09/15 15:28:32;;;;;;;2.05;1.25;;;;;;;17.87;66.18;101009.53;10548636;28;20035;-73
2022/09/15 15:33:33;;;;;;;4.82;1.92;;;;;;;18.05;66.11;101007.66;10582481;28;20054;-74
2022/09/15 15:38:34;;;;;;;23.45;2.35;;;;;;;18.10;66.00;101010.50;10586095;28;20046;-74
2022/09/15 15:43:35;;;;;;;9.43;2.40;;;;;;;18.07;66.05;101009.09;10565150;28;20027;-74
2022/09/15 15:48:35;;;;;;;7.03;1.20;;;;;;;18.03;67.20;101018.06;10583215;28;20043;-74
2022/09/15 15:53:36;;;;;;;2.35;1.83;;;;;;;17.88;67.61;101027.63;10563986;28;20032;-73
2022/09/15 15:58:36;;;;;;;6.82;1.75;;;;;;;17.82;67.99;101022.28;10582607;28;20031;-73
2022/09/15 16:03:37;;;;;;;8.65;2.10;;;;;;;17.85;68.23;101027.28;10582440;28;20435;-74
2022/09/15 16:08:38;;;;;;;5.80;1.75;;;;;;;17.77;67.89;101024.91;10555440;28;20026;-73
2022/09/15 16:13:39;;;;;;;6.68;1.88;;;;;;;17.48;67.64;101026.72;10589039;28;20190;-73
2022/09/15 16:18:39;;;;;;;2.88;2.20;;;;;;;17.34;67.02;101028.88;10590104;28;20427;-73
2022/09/15 16:23:39;;;;;;;3.97;1.35;;;;;;;17.10;67.45;101033.53;10571511;28;20137;-73
2022/09/15 16:28:40;;;;;;;7.55;1.92;;;;;;;17.20;68.48;101031.88;10571468;28;20449;-73
2022/09/15 16:33:41;;;;;;;4.82;2.25;;;;;;;17.28;67.30;101022.47;10589356;28;20148;-73
2022/09/15 16:38:41;;;;;;;3.13;1.95;;;;;;;17.06;66.71;101024.13;10590497;28;20031;-73
2022/09/15 16:43:42;;;;;;;3.75;2.33;;;;;;;16.91;66.56;101027.31;10587677;28;20060;-73
2022/09/15 16:48:45;;;;;;;4.43;2.20;;;;;;;17.02;66.29;101033.88;10587562;28;20039;-73
2022/09/15 16:53:46;;;;;;;2.60;1.63;;;;;;;17.02;65.58;101033.88;10570711;28;20028;-73
2022/09/15 16:58:46;;;;;;;2.83;1.23;;;;;;;16.83;65.57;101044.94;10588504;28;20390;-73
2022/09/15 17:03:47;;;;;;;2.60;1.15;;;;;;;16.63;65.93;101044.38;10588782;28;20073;-73
2022/09/15 17:08:47;;;;;;;3.92;1.10;;;;;;;16.47;66.39;101043.97;10552818;28;20031;-73
2022/09/15 17:13:48;;;;;;;4.90;1.50;;;;;;;16.45;66.43;101050.75;10552707;28;20034;-73
2022/09/15 17:18:48;;;;;;;3.10;2.35;;;;;;;16.42;66.96;101049.31;10588183;28;20035;-74
2022/09/15 17:23:49;;;;;;;2.75;1.80;;;;;;;16.34;66.50;101054.28;10569340;28;20020;-73
2022/09/15 17:28:49;;;;;;;9.32;1.58;;;;;;;16.32;66.78;101040.84;10587175;28;20032;-73
2022/09/15 17:33:50;;;;;;;7.80;1.75;;;;;;;16.09;66.77;101043.47;10587981;28;20396;-73
2022/09/15 17:38:50;;;;;;;1.92;1.42;;;;;;;15.88;66.94;101044.78;10586252;28;20044;-73
2022/09/15 17:43:51;;;;;;;6.65;1.88;;;;;;;15.72;67.10;101033.41;10552927;28;20028;-74
2022/09/15 17:48:51;;;;;;;10.98;1.25;;;;;;;15.55;67.45;101044.09;10586515;28;20112;-73
2022/09/15 17:53:51;;;;;;;2.45;1.33;;;;;;;15.44;67.39;101044.81;10586287;28;20455;-74
2022/09/15 17:58:52;;;;;;;3.60;0.93;;;;;;;15.53;67.79;101045.38;10586820;28;20039;-74
2022/09/15 18:03:52;;;;;;;2.30;1.48;;;;;;;15.63;68.59;101048.41;10588057;28;20040;-74
2022/09/15 18:08:52;;;;;;;3.88;2.15;;;;;;;15.68;68.45;101042.31;10590416;28;20075;-74
2022/09/15 18:13:53;;;;;;;8.38;1.13;;;;;;;15.77;70.67;101055.41;10587555;28;20036;-73
2022/09/15 18:18:53;;;;;;;6.32;2.00;;;;;;;15.85;70.81;101054.28;10584809;28;20381;-73
2022/09/15 18:23:54;;;;;;;10.30;1.88;;;;;;;15.85;69.38;101057.00;10568117;28;20060;-73
2022/09/15 18:28:55;;;;;;;2.50;1.50;;;;;;;15.51;69.39;101040.16;10585469;28;20039;-73
2022/09/15 18:33:56;;;;;;;5.80;2.58;;;;;;;15.23;70.36;101037.09;10584246;28;20059;-73
2022/09/15 18:38:56;;;;;;;5.97;2.45;;;;;;;15.06;70.23;101043.13;10585560;28;20421;-73
2022/09/15 18:43:56;;;;;;;5.65;2.58;;;;;;;15.20;69.94;101062.91;10584313;28;20030;-73
2022/09/15 18:48:58;;;;;;;7.28;2.05;;;;;;;14.92;74.22;101070.72;10566518;28;20046;-73
2022/09/15 18:53:58;;;;;;;1.33;1.23;;;;;;;14.77;73.57;101062.84;10583817;28;20035;-75
2022/09/15 18:58:58;;;;;;;9.68;3.03;;;;;;;14.68;75.53;101067.75;10565490;28;20425;-75
2022/09/15 19:03:59;;;;;;;13.85;2.83;;;;;;;14.68;75.76;101070.50;10566100;28;20039;-74
2022/09/15 19:08:59;;;;;;;10.25;3.20;;;;;;;14.73;78.18;101070.66;10583195;28;20490;-75
2022/09/15 19:14:00;;;;;;;6.70;2.05;;;;;;;14.78;77.57;101072.72;10582647;28;20032;-75
2022/09/15 19:19:00;;;;;;;5.72;2.30;;;;;;;14.76;75.90;101074.81;10583095;28;20126;-75
2022/09/15 19:24:01;;;;;;;4.18;1.13;;;;;;;14.69;74.41;101066.69;10564609;28;20039;-75
2022/09/15 19:29:02;;;;;;;5.35;1.25;;;;;;;14.57;73.87;101077.47;10583425;28;20039;-75
2022/09/15 19:34:03;;;;;;;2.17;1.38;;;;;;;14.50;73.96;101075.81;10564276;28;20089;-75
2022/09/15 19:39:03;;;;;;;1.92;1.80;;;;;;;14.52;73.64;101081.91;10564042;28;20081;-75
2022/09/15 19:44:04;;;;;;;8.95;2.42;;;;;;;14.59;74.52;101075.38;10582245;28;20035;-75
2022/09/15 19:49:05;;;;;;;2.80;1.52;;;;;;;14.75;74.72;101075.88;10583528;28;20051;-76
2022/09/15 19:54:05;;;;;;;2.15;1.45;;;;;;;14.86;74.68;101083.34;10566952;28;20032;-75
2022/09/15 19:59:06;;;;;;;4.25;2.75;;;;;;;14.86;74.81;101080.63;10584552;28;20038;-75
2022/09/15 20:04:07;;;;;;;9.32;2.17;;;;;;;14.84;73.90;101080.03;10582242;28;20467;-74
2022/09/15 20:09:07;;;;;;;4.07;1.40;;;;;;;14.79;73.77;101083.41;10582232;28;20478;-74
2022/09/15 20:14:08;;;;;;;8.80;2.28;;;;;;;14.67;72.97;101079.69;10563757;28;20073;-73
2022/09/15 20:19:08;;;;;;;2.53;1.90;;;;;;;14.54;72.69;101087.97;10581673;28;20036;-74
2022/09/15 20:24:08;;;;;;;3.60;2.00;;;;;;;14.45;73.79;101087.34;10562979;28;20035;-73
2022/09/15 20:29:09;;;;;;;14.63;2.80;;;;;;;14.35;73.32;101087.81;10580075;28;20039;-74
2022/09/15 20:34:09;;;;;;;13.60;1.75;;;;;;;14.29;72.95;101087.88;10548056;28;20071;-73
2022/09/15 20:39:12;;;;;;;11.75;1.52;;;;;;;14.24;73.20;101093.16;10587256;28;20100;-74
2022/09/15 20:44:12;;;;;;;3.55;1.15;;;;;;;14.16;73.80;101092.31;10565777;28;20403;-74
2022/09/15 20:49:13;;;;;;;9.65;2.25;;;;;;;14.17;74.69;101085.84;10568967;28;20065;-74
2022/09/15 20:54:13;;;;;;;8.60;1.95;;;;;;;14.44;74.40;101102.03;10573552;28;20503;-74
2022/09/15 20:59:14;;;;;;;6.30;2.60;;;;;;;14.56;72.81;101099.50;10594004;28;20031;-73
2022/09/15 21:04:14;;;;;;;6.03;2.22;;;;;;;14.48;74.22;101097.81;10588503;28;20104;-73
2022/09/15 21:09:15;;;;;;;11.00;2.38;;;;;;;14.52;74.08;101095.56;10588206;28;20043;-73
2022/09/15 21:14:15;;;;;;;4.55;2.15;;;;;;;14.68;74.91;101110.50;10569708;28;20038;-73
2022/09/15 21:19:16;;;;;;;4.95;2.45;;;;;;;14.67;75.77;101104.22;10587973;28;20031;-73
2022/09/15 21:24:16;;;;;;;10.15;2.85;;;;;;;14.62;76.17;101104.91;10588122;28;20059;-73
2022/09/15 21:29:17;;;;;;;5.40;2.00;;;;;;;14.47;78.35;101093.44;10587412;28;20054;-74
2022/09/15 21:34:17;;;;;;;6.07;1.83;;;;;;;14.51;76.44;101102.03;10568291;28;20502;-73
2022/09/15 21:39:18;;;;;;;11.27;1.92;;;;;;;14.41;76.40;101110.66;10535389;28;20077;-73
2022/09/15 21:44:18;;;;;;;7.32;2.10;;;;;;;14.34;77.53;101098.97;10569818;28;20036;-73
2022/09/15 21:49:19;;;;;;;7.15;1.65;;;;;;;14.31;76.45;101102.13;10586139;28;20027;-73
2022/09/15 21:54:19;;;;;;;8.98;2.28;;;;;;;14.27;78.01;101099.00;10585315;28;20075;-73
2022/09/15 21:59:20;;;;;;;11.05;2.63;;;;;;;14.16;77.54;101095.03;10568650;28;20379;-73
2022/09/15 22:04:20;;;;;;;3.90;1.85;;;;;;;14.09;78.35;101093.41;10567084;28;20355;-73
2022/09/15 22:09:21;;;;;;;3.08;1.85;;;;;;;14.03;79.42;101094.28;10568230;28;20031;-73
2022/09/15 22:14:21;;;;;;;7.35;1.73;;;;;;;14.03;79.20;101091.56;10585367;28;20078;-73
2022/09/15 22:19:21;;;;;;;7.85;2.30;;;;;;;14.11;79.03;101083.16;10587654;28;20039;-73
2022/09/15 22:24:22;;;;;;;10.30;2.13;;;;;;;14.16;78.37;101088.75;10588290;28;20028;-73
2022/09/15 22:29:22;;;;;;;5.75;2.30;;;;;;;14.08;77.05;101081.69;10584549;28;20062;-73
2022/09/15 22:34:23;;;;;;;9.85;1.77;;;;;;;14.02;76.35;101077.09;10584626;28;20062;-73
2022/09/15 22:39:24;;;;;;;7.88;1.45;;;;;;;13.91;75.97;101078.63;10585911;28;20363;-73
2022/09/15 22:44:24;;;;;;;7.53;2.00;;;;;;;13.78;75.38;101077.81;10584890;28;20084;-73
2022/09/15 22:49:26;;;;;;;5.45;2.30;;;;;;;13.69;75.31;101086.22;10549705;28;20036;-73
2022/09/15 22:54:26;;;;;;;4.00;2.08;;;;;;;13.66;75.56;101085.81;10566086;28;20031;-73
2022/09/15 22:59:27;;;;;;;6.85;1.85;;;;;;;13.67;74.89;101082.88;10584909;28;20058;-73
2022/09/15 23:04:27;;;;;;;1.95;1.60;;;;;;;13.71;74.44;101086.84;10568522;28;20169;-73
2022/09/15 23:09:28;;;;;;;2.47;1.30;;;;;;;13.80;73.86;101084.72;10584800;28;20438;-73
2022/09/15 23:14:28;;;;;;;2.35;1.73;;;;;;;13.80;74.18;101090.16;10584895;28;20483;-73
2022/09/15 23:19:29;;;;;;;8.07;1.48;;;;;;;13.68;73.41;101087.25;10583851;28;20032;-73
2022/09/15 23:24:30;;;;;;;7.68;2.28;;;;;;;13.53;74.88;101075.81;10564930;28;20028;-73
2022/09/15 23:29:31;;;;;;;1.85;1.13;;;;;;;13.56;74.61;101071.81;10583509;28;20047;-73
2022/09/15 23:34:31;;;;;;;9.10;1.25;;;;;;;13.54;74.36;101074.75;10564368;28;20047;-73
2022/09/15 23:39:31;;;;;;;5.35;1.10;;;;;;;13.58;75.24;101067.81;10583217;28;20355;-73
2022/09/15 23:44:32;;;;;;;7.55;1.58;;;;;;;13.78;75.48;101061.47;10581926;28;20032;-73
2022/09/15 23:49:33;;;;;;;6.03;2.33;;;;;;;14.10;76.03;101060.53;10547271;28;20023;-73
2022/09/15 23:54:34;;;;;;;8.57;2.03;;;;;;;14.16;75.54;101062.38;10546929;28;20028;-73
2022/09/15 23:59:34;;;;;;;7.60;1.48;;;;;;;14.08;76.74;101059.06;10564029;28;20118;-73
